sensor_id;sensor_type;location;lat;lon;timestamp;temperature;humidity
2387;DHT22;49473;50.772;8.768;2023-05-10T00:00:56;15.20;99.90
2387;DHT22;49473;50.772;8.768;2023-05-10T00:03:23;15.20;99.90
2387;DHT22;49473;50.772;8.768;2023-05-10T00:05:50;15.20;99.90
2387;DHT22;49473;50.772;8.768;2023-05-10T00:08:17;15.20;99.90
2387;DHT22;49473;50.772;8.768;2023-05-10T00:10:45;15.20;99.90
2387;DHT22;49473;50.772;8.768;2023-05-10T00:13:12;15.30;99.90
2387;DHT22;49473;50.772;8.768;2023-05-10T00:15:39;15.30;99.90
2387;DHT22;49473;50.772;8.768;2023-05-10T00:18:06;15.30;99.90
2387;DHT22;49473;50.772;8.768;2023-05-10T00:20:33;15.20;99.90
2387;DHT22;49473;50.772;8.768;2023-05-10T00:23:00;15.10;99.90
2387;DHT22;49473;50.772;8.768;2023-05-10T00:25:27;15.10;99.90
2387;DHT22;49473;50.772;8.768;2023-05-10T00:27:55;15.20;99.90
2387;DHT22;49473;50.772;8.768;2023-05-10T00:30:22;15.20;99.90
2387;DHT22;49473;50.772;8.768;2023-05-10T00:32:49;15.20;99.90
2387;DHT22;49473;50.772;8.768;2023-05-10T00:35:17;15.20;99.90
2387;DHT22;49473;50.772;8.768;2023-05-10T00:37:43;15.00;99.90
2387;DHT22;49473;50.772;8.768;2023-05-10T00:40:11;15.00;99.90
2387;DHT22;49473;50.772;8.768;2023-05-10T00:42:38;14.60;99.90
2387;DHT22;49473;50.772;8.768;2023-05-10T00:45:07;14.40;99.90
2387;DHT22;49473;50.772;8.768;2023-05-10T00:47:34;14.00;99.90
2387;DHT22;49473;50.772;8.768;2023-05-10T00:50:01;13.70;99.90
2387;DHT22;49473;50.772;8.768;2023-05-10T00:52:29;13.60;99.90
2387;DHT22;49473;50.772;8.768;2023-05-10T00:54:56;13.50;99.90
2387;DHT22;49473;50.772;8.768;2023-05-10T00:57:23;13.40;99.90
2387;DHT22;49473;50.772;8.768;2023-05-10T00:59:50;13.40;99.90
2387;DHT22;49473;50.772;8.768;2023-05-10T01:02:19;13.40;99.90
2387;DHT22;49473;50.772;8.768;2023-05-10T01:04:46;13.40;99.90
2387;DHT22;49473;50.772;8.768;2023-05-10T01:07:13;13.40;99.90
2387;DHT22;49473;50.772;8.768;2023-05-10T01:09:40;13.30;99.90
2387;DHT22;49473;50.772;8.768;2023-05-10T01:12:07;13.30;99.90
2387;DHT22;49473;50.772;8.768;2023-05-10T01:14:34;13.30;99.90
2387;DHT22;49473;50.772;8.768;2023-05-10T01:17:02;13.30;99.90
2387;DHT22;49473;50.772;8.768;2023-05-10T01:19:31;13.30;99.90
2387;DHT22;49473;50.772;8.768;2023-05-10T01:22:08;13.30;99.90
2387;DHT22;49473;50.772;8.768;2023-05-10T01:28:07;13.40;99.90
2387;DHT22;49473;50.772;8.768;2023-05-10T01:31:06;13.40;99.90
2387;DHT22;49473;50.772;8.768;2023-05-10T01:33:39;13.40;99.90
2387;DHT22;49473;50.772;8.768;2023-05-10T01:36:15;13.40;99.90
2387;DHT22;49473;50.772;8.768;2023-05-10T01:38:47;13.30;99.90
2387;DHT22;49473;50.772;8.768;2023-05-10T01:41:19;13.30;99.90
2387;DHT22;49473;50.772;8.768;2023-05-10T01:43:55;13.30;99.90
2387;DHT22;49473;50.772;8.768;2023-05-10T01:46:27;13.40;99.90
2387;DHT22;49473;50.772;8.768;2023-05-10T01:48:58;13.40;99.90
2387;DHT22;49473;50.772;8.768;2023-05-10T01:51:31;13.40;99.90
2387;DHT22;49473;50.772;8.768;2023-05-10T01:54:02;13.40;99.90
2387;DHT22;49473;50.772;8.768;2023-05-10T01:56:31;13.40;99.90
2387;DHT22;49473;50.772;8.768;2023-05-10T01:59:00;13.40;99.90
2387;DHT22;49473;50.772;8.768;2023-05-10T02:01:30;13.40;99.90
2387;DHT22;49473;50.772;8.768;2023-05-10T02:03:59;13.30;99.90
2387;DHT22;49473;50.772;8.768;2023-05-10T02:06:27;13.20;99.90
2387;DHT22;49473;50.772;8.768;2023-05-10T02:08:54;13.20;99.90
2387;DHT22;49473;50.772;8.768;2023-05-10T02:11:21;13.10;99.90
2387;DHT22;49473;50.772;8.768;2023-05-10T02:13:50;13.10;99.90
2387;DHT22;49473;50.772;8.768;2023-05-10T02:16:19;13.10;99.90
2387;DHT22;49473;50.772;8.768;2023-05-10T02:18:51;13.10;99.90
2387;DHT22;49473;50.772;8.768;2023-05-10T02:21:20;13.00;99.90
2387;DHT22;49473;50.772;8.768;2023-05-10T02:23:48;13.00;99.90
2387;DHT22;49473;50.772;8.768;2023-05-10T02:26:17;13.10;99.90
2387;DHT22;49473;50.772;8.768;2023-05-10T02:28:44;13.10;99.90
2387;DHT22;49473;50.772;8.768;2023-05-10T02:31:12;13.10;99.90
2387;DHT22;49473;50.772;8.768;2023-05-10T02:33:40;13.10;99.90
2387;DHT22;49473;50.772;8.768;2023-05-10T02:36:09;13.10;99.90
2387;DHT22;49473;50.772;8.768;2023-05-10T02:38:37;13.00;99.90
2387;DHT22;49473;50.772;8.768;2023-05-10T02:41:06;13.00;99.90
2387;DHT22;49473;50.772;8.768;2023-05-10T02:43:35;13.00;99.90
2387;DHT22;49473;50.772;8.768;2023-05-10T02:46:02;13.00;99.90
2387;DHT22;49473;50.772;8.768;2023-05-10T02:48:29;13.00;99.90
2387;DHT22;49473;50.772;8.768;2023-05-10T02:51:01;13.10;99.90
2387;DHT22;49473;50.772;8.768;2023-05-10T02:53:31;13.00;99.90
2387;DHT22;49473;50.772;8.768;2023-05-10T02:56:05;13.00;99.90
2387;DHT22;49473;50.772;8.768;2023-05-10T02:58:33;13.00;99.90
2387;DHT22;49473;50.772;8.768;2023-05-10T03:01:00;13.00;99.90
2387;DHT22;49473;50.772;8.768;2023-05-10T03:03:27;12.90;99.90
2387;DHT22;49473;50.772;8.768;2023-05-10T03:05:54;12.90;99.90
2387;DHT22;49473;50.772;8.768;2023-05-10T03:08:22;13.00;99.90
2387;DHT22;49473;50.772;8.768;2023-05-10T03:10:55;13.00;99.90
2387;DHT22;49473;50.772;8.768;2023-05-10T03:13:33;13.00;99.90
2387;DHT22;49473;50.772;8.768;2023-05-10T03:16:07;13.00;99.90
2387;DHT22;49473;50.772;8.768;2023-05-10T03:18:42;13.00;99.90
2387;DHT22;49473;50.772;8.768;2023-05-10T03:21:11;13.00;99.90
2387;DHT22;49473;50.772;8.768;2023-05-10T03:23:41;13.00;99.90
2387;DHT22;49473;50.772;8.768;2023-05-10T03:26:10;13.00;99.90
2387;DHT22;49473;50.772;8.768;2023-05-10T03:28:41;13.00;99.90
2387;DHT22;49473;50.772;8.768;2023-05-10T03:31:09;13.00;99.90
2387;DHT22;49473;50.772;8.768;2023-05-10T03:33:36;13.00;99.90
2387;DHT22;49473;50.772;8.768;2023-05-10T03:36:12;12.90;99.90
2387;DHT22;49473;50.772;8.768;2023-05-10T03:38:39;12.90;99.90
2387;DHT22;49473;50.772;8.768;2023-05-10T03:41:05;12.90;99.90
2387;DHT22;49473;50.772;8.768;2023-05-10T03:43:32;12.90;99.90
2387;DHT22;49473;50.772;8.768;2023-05-10T03:46:01;12.80;99.90
2387;DHT22;49473;50.772;8.768;2023-05-10T03:48:28;12.90;99.90
2387;DHT22;49473;50.772;8.768;2023-05-10T03:50:56;12.80;99.90
2387;DHT22;49473;50.772;8.768;2023-05-10T03:53:22;12.80;99.90
2387;DHT22;49473;50.772;8.768;2023-05-10T03:55:49;12.80;99.90
2387;DHT22;49473;50.772;8.768;2023-05-10T03:58:16;12.70;99.90
2387;DHT22;49473;50.772;8.768;2023-05-10T04:00:43;12.70;99.90
2387;DHT22;49473;50.772;8.768;2023-05-10T04:03:12;12.70;99.90
2387;DHT22;49473;50.772;8.768;2023-05-10T04:05:38;12.70;99.90
2387;DHT22;49473;50.772;8.768;2023-05-10T04:08:05;12.70;99.90
2387;DHT22;49473;50.772;8.768;2023-05-10T04:10:32;12.70;99.90
2387;DHT22;49473;50.772;8.768;2023-05-10T04:12:59;12.70;99.90
2387;DHT22;49473;50.772;8.768;2023-05-10T04:15:26;12.70;99.90
2387;DHT22;49473;50.772;8.768;2023-05-10T04:17:52;12.60;99.90
2387;DHT22;49473;50.772;8.768;2023-05-10T04:20:21;12.60;99.90
2387;DHT22;49473;50.772;8.768;2023-05-10T04:22:48;12.60;99.90
2387;DHT22;49473;50.772;8.768;2023-05-10T04:25:15;12.60;99.90
2387;DHT22;49473;50.772;8.768;2023-05-10T04:27:42;12.70;99.90
2387;DHT22;49473;50.772;8.768;2023-05-10T04:30:09;12.70;99.90
2387;DHT22;49473;50.772;8.768;2023-05-10T04:32:36;12.70;99.90
2387;DHT22;49473;50.772;8.768;2023-05-10T04:35:03;12.70;99.90
2387;DHT22;49473;50.772;8.768;2023-05-10T04:37:32;12.70;99.90
2387;DHT22;49473;50.772;8.768;2023-05-10T04:39:58;12.70;99.90
2387;DHT22;49473;50.772;8.768;2023-05-10T04:42:26;12.80;99.90
2387;DHT22;49473;50.772;8.768;2023-05-10T04:44:53;12.80;99.90
2387;DHT22;49473;50.772;8.768;2023-05-10T04:47:20;12.80;99.90
2387;DHT22;49473;50.772;8.768;2023-05-10T04:49:47;12.90;99.90
2387;DHT22;49473;50.772;8.768;2023-05-10T04:52:13;12.90;99.90
2387;DHT22;49473;50.772;8.768;2023-05-10T04:54:44;12.90;99.90
2387;DHT22;49473;50.772;8.768;2023-05-10T04:57:10;13.00;99.90
2387;DHT22;49473;50.772;8.768;2023-05-10T04:59:37;13.10;99.90
2387;DHT22;49473;50.772;8.768;2023-05-10T05:02:04;13.10;99.90
2387;DHT22;49473;50.772;8.768;2023-05-10T05:04:31;13.20;99.90
2387;DHT22;49473;50.772;8.768;2023-05-10T05:06:58;13.20;99.90
2387;DHT22;49473;50.772;8.768;2023-05-10T05:09:25;13.20;99.90
2387;DHT22;49473;50.772;8.768;2023-05-10T05:11:53;13.30;99.90
2387;DHT22;49473;50.772;8.768;2023-05-10T05:14:20;13.30;99.90
2387;DHT22;49473;50.772;8.768;2023-05-10T05:16:47;13.30;99.90
2387;DHT22;49473;50.772;8.768;2023-05-10T05:19:14;13.30;99.90
2387;DHT22;49473;50.772;8.768;2023-05-10T05:21:40;13.40;99.90
2387;DHT22;49473;50.772;8.768;2023-05-10T05:24:07;13.40;99.90
2387;DHT22;49473;50.772;8.768;2023-05-10T05:26:35;13.50;99.90
2387;DHT22;49473;50.772;8.768;2023-05-10T05:29:03;13.50;99.90
2387;DHT22;49473;50.772;8.768;2023-05-10T05:31:30;13.60;99.90
2387;DHT22;49473;50.772;8.768;2023-05-10T05:33:57;13.70;99.90
2387;DHT22;49473;50.772;8.768;2023-05-10T05:36:24;13.70;99.90
2387;DHT22;49473;50.772;8.768;2023-05-10T05:38:50;13.60;99.90
2387;DHT22;49473;50.772;8.768;2023-05-10T05:41:17;13.70;99.90
2387;DHT22;49473;50.772;8.768;2023-05-10T05:43:44;13.70;99.90
2387;DHT22;49473;50.772;8.768;2023-05-10T05:46:12;13.60;99.90
2387;DHT22;49473;50.772;8.768;2023-05-10T05:48:39;13.60;99.90
2387;DHT22;49473;50.772;8.768;2023-05-10T05:51:05;13.70;99.90
2387;DHT22;49473;50.772;8.768;2023-05-10T05:53:32;13.80;99.90
2387;DHT22;49473;50.772;8.768;2023-05-10T05:55:59;13.90;99.90
2387;DHT22;49473;50.772;8.768;2023-05-10T05:58:26;14.00;99.90
2387;DHT22;49473;50.772;8.768;2023-05-10T06:00:53;14.10;99.90
2387;DHT22;49473;50.772;8.768;2023-05-10T06:03:21;14.20;99.90
2387;DHT22;49473;50.772;8.768;2023-05-10T06:05:48;14.30;99.90
2387;DHT22;49473;50.772;8.768;2023-05-10T06:08:15;14.40;99.90
2387;DHT22;49473;50.772;8.768;2023-05-10T06:10:42;14.30;99.90
2387;DHT22;49473;50.772;8.768;2023-05-10T06:13:09;14.30;99.90
2387;DHT22;49473;50.772;8.768;2023-05-10T06:15:35;14.40;99.90
2387;DHT22;49473;50.772;8.768;2023-05-10T06:18:02;14.40;99.90
2387;DHT22;49473;50.772;8.768;2023-05-10T06:20:30;14.40;99.90
2387;DHT22;49473;50.772;8.768;2023-05-10T06:22:58;14.50;99.90
2387;DHT22;49473;50.772;8.768;2023-05-10T06:25:24;14.60;99.90
2387;DHT22;49473;50.772;8.768;2023-05-10T06:27:51;14.60;99.90
2387;DHT22;49473;50.772;8.768;2023-05-10T06:30:23;14.70;99.90
2387;DHT22;49473;50.772;8.768;2023-05-10T06:32:52;14.60;99.90
2387;DHT22;49473;50.772;8.768;2023-05-10T06:35:19;14.60;99.90
2387;DHT22;49473;50.772;8.768;2023-05-10T06:37:48;14.60;99.90
2387;DHT22;49473;50.772;8.768;2023-05-10T06:40:15;14.60;99.90
2387;DHT22;49473;50.772;8.768;2023-05-10T06:42:41;14.60;99.90
2387;DHT22;49473;50.772;8.768;2023-05-10T06:45:10;14.70;99.90
2387;DHT22;49473;50.772;8.768;2023-05-10T06:47:37;14.70;99.90
2387;DHT22;49473;50.772;8.768;2023-05-10T06:50:05;14.70;99.90
2387;DHT22;49473;50.772;8.768;2023-05-10T06:52:31;14.80;99.90
2387;DHT22;49473;50.772;8.768;2023-05-10T06:55:00;14.60;99.90
2387;DHT22;49473;50.772;8.768;2023-05-10T06:57:27;14.60;99.90
2387;DHT22;49473;50.772;8.768;2023-05-10T06:59:54;14.50;99.90
2387;DHT22;49473;50.772;8.768;2023-05-10T07:02:21;14.60;99.90
2387;DHT22;49473;50.772;8.768;2023-05-10T07:04:48;14.60;99.90
2387;DHT22;49473;50.772;8.768;2023-05-10T07:07:15;14.50;99.90
2387;DHT22;49473;50.772;8.768;2023-05-10T07:09:42;14.50;99.90
2387;DHT22;49473;50.772;8.768;2023-05-10T07:12:10;14.50;99.90
2387;DHT22;49473;50.772;8.768;2023-05-10T07:14:37;14.50;99.90
2387;DHT22;49473;50.772;8.768;2023-05-10T07:17:03;14.40;99.90
2387;DHT22;49473;50.772;8.768;2023-05-10T07:19:30;14.50;99.90
2387;DHT22;49473;50.772;8.768;2023-05-10T07:21:58;14.50;99.90
2387;DHT22;49473;50.772;8.768;2023-05-10T07:24:24;14.60;99.90
2387;DHT22;49473;50.772;8.768;2023-05-10T07:26:51;14.70;99.90
2387;DHT22;49473;50.772;8.768;2023-05-10T07:29:19;14.90;99.90
2387;DHT22;49473;50.772;8.768;2023-05-10T07:31:46;15.00;99.90
2387;DHT22;49473;50.772;8.768;2023-05-10T07:34:13;15.20;99.90
2387;DHT22;49473;50.772;8.768;2023-05-10T07:36:40;15.20;99.90
2387;DHT22;49473;50.772;8.768;2023-05-10T07:39:07;15.30;99.90
2387;DHT22;49473;50.772;8.768;2023-05-10T07:41:34;15.40;99.90
2387;DHT22;49473;50.772;8.768;2023-05-10T07:44:00;15.60;99.90
2387;DHT22;49473;50.772;8.768;2023-05-10T07:46:28;15.60;99.90
2387;DHT22;49473;50.772;8.768;2023-05-10T07:48:55;15.80;99.90
2387;DHT22;49473;50.772;8.768;2023-05-10T07:51:22;16.00;99.90
2387;DHT22;49473;50.772;8.768;2023-05-10T07:53:49;16.30;99.90
2387;DHT22;49473;50.772;8.768;2023-05-10T07:56:23;16.60;99.90
2387;DHT22;49473;50.772;8.768;2023-05-10T07:58:53;16.90;99.90
2387;DHT22;49473;50.772;8.768;2023-05-10T08:01:20;16.90;99.90
2387;DHT22;49473;50.772;8.768;2023-05-10T08:03:48;16.90;99.90
2387;DHT22;49473;50.772;8.768;2023-05-10T08:06:17;16.80;99.90
2387;DHT22;49473;50.772;8.768;2023-05-10T08:08:45;16.80;99.90
2387;DHT22;49473;50.772;8.768;2023-05-10T08:11:16;16.80;99.90
2387;DHT22;49473;50.772;8.768;2023-05-10T08:13:42;16.90;99.90
2387;DHT22;49473;50.772;8.768;2023-05-10T08:16:09;17.00;99.90
2387;DHT22;49473;50.772;8.768;2023-05-10T08:18:37;17.40;99.90
2387;DHT22;49473;50.772;8.768;2023-05-10T08:21:05;17.70;99.90
2387;DHT22;49473;50.772;8.768;2023-05-10T08:23:32;17.80;99.90
2387;DHT22;49473;50.772;8.768;2023-05-10T08:25:59;17.90;99.90
2387;DHT22;49473;50.772;8.768;2023-05-10T08:28:26;18.00;99.90
2387;DHT22;49473;50.772;8.768;2023-05-10T08:30:53;18.00;99.90
2387;DHT22;49473;50.772;8.768;2023-05-10T08:33:20;18.10;99.90
2387;DHT22;49473;50.772;8.768;2023-05-10T08:35:47;18.20;99.90
2387;DHT22;49473;50.772;8.768;2023-05-10T08:38:15;18.30;99.90
2387;DHT22;49473;50.772;8.768;2023-05-10T08:40:43;18.50;99.90
2387;DHT22;49473;50.772;8.768;2023-05-10T08:43:12;18.90;99.90
2387;DHT22;49473;50.772;8.768;2023-05-10T08:45:41;19.10;99.90
2387;DHT22;49473;50.772;8.768;2023-05-10T08:48:09;19.00;99.90
2387;DHT22;49473;50.772;8.768;2023-05-10T08:50:37;19.30;99.90
2387;DHT22;49473;50.772;8.768;2023-05-10T08:53:05;19.60;99.90
2387;DHT22;49473;50.772;8.768;2023-05-10T08:55:34;20.20;99.90
2387;DHT22;49473;50.772;8.768;2023-05-10T08:58:02;20.90;99.90
2387;DHT22;49473;50.772;8.768;2023-05-10T09:00:29;21.00;99.90
2387;DHT22;49473;50.772;8.768;2023-05-10T09:02:57;21.20;99.90
2387;DHT22;49473;50.772;8.768;2023-05-10T09:05:24;21.40;99.90
2387;DHT22;49473;50.772;8.768;2023-05-10T09:07:51;21.50;99.90
2387;DHT22;49473;50.772;8.768;2023-05-10T09:10:19;21.50;99.90
2387;DHT22;49473;50.772;8.768;2023-05-10T09:12:48;21.40;99.90
2387;DHT22;49473;50.772;8.768;2023-05-10T09:15:15;21.10;99.90
2387;DHT22;49473;50.772;8.768;2023-05-10T09:17:45;21.20;99.90
2387;DHT22;49473;50.772;8.768;2023-05-10T09:20:12;21.30;99.90
2387;DHT22;49473;50.772;8.768;2023-05-10T09:22:39;21.00;99.90
2387;DHT22;49473;50.772;8.768;2023-05-10T09:25:07;20.80;99.90
2387;DHT22;49473;50.772;8.768;2023-05-10T09:27:34;21.00;99.90
2387;DHT22;49473;50.772;8.768;2023-05-10T09:30:03;20.90;99.90
2387;DHT22;49473;50.772;8.768;2023-05-10T09:32:37;20.80;99.90
2387;DHT22;49473;50.772;8.768;2023-05-10T09:35:08;20.70;99.90
2387;DHT22;49473;50.772;8.768;2023-05-10T09:37:35;20.70;99.90
2387;DHT22;49473;50.772;8.768;2023-05-10T09:40:05;20.40;99.90
2387;DHT22;49473;50.772;8.768;2023-05-10T09:42:33;20.30;99.90
2387;DHT22;49473;50.772;8.768;2023-05-10T09:45:03;19.90;99.90
2387;DHT22;49473;50.772;8.768;2023-05-10T09:47:32;19.80;99.90
2387;DHT22;49473;50.772;8.768;2023-05-10T09:49:59;19.80;99.90
2387;DHT22;49473;50.772;8.768;2023-05-10T09:52:30;20.00;99.90
2387;DHT22;49473;50.772;8.768;2023-05-10T09:54:57;19.90;99.90
2387;DHT22;49473;50.772;8.768;2023-05-10T09:57:24;19.80;99.90
2387;DHT22;49473;50.772;8.768;2023-05-10T09:59:51;19.90;99.90
2387;DHT22;49473;50.772;8.768;2023-05-10T10:02:21;20.20;99.90
2387;DHT22;49473;50.772;8.768;2023-05-10T10:04:49;20.50;99.90
2387;DHT22;49473;50.772;8.768;2023-05-10T10:07:22;20.40;99.90
2387;DHT22;49473;50.772;8.768;2023-05-10T10:09:51;20.20;99.90
2387;DHT22;49473;50.772;8.768;2023-05-10T10:12:18;19.90;99.90
2387;DHT22;49473;50.772;8.768;2023-05-10T10:14:46;20.00;99.90
2387;DHT22;49473;50.772;8.768;2023-05-10T10:17:15;19.80;99.90
2387;DHT22;49473;50.772;8.768;2023-05-10T10:19:43;19.80;99.90
2387;DHT22;49473;50.772;8.768;2023-05-10T10:22:11;19.20;99.90
2387;DHT22;49473;50.772;8.768;2023-05-10T10:24:38;18.70;99.90
2387;DHT22;49473;50.772;8.768;2023-05-10T10:27:19;18.30;99.90
2387;DHT22;49473;50.772;8.768;2023-05-10T10:29:52;18.10;99.90
2387;DHT22;49473;50.772;8.768;2023-05-10T10:32:30;17.90;99.90
2387;DHT22;49473;50.772;8.768;2023-05-10T10:35:03;17.90;99.90
2387;DHT22;49473;50.772;8.768;2023-05-10T10:37:47;18.10;99.90
2387;DHT22;49473;50.772;8.768;2023-05-10T10:40:24;18.30;99.90
2387;DHT22;49473;50.772;8.768;2023-05-10T10:42:52;18.60;99.90
2387;DHT22;49473;50.772;8.768;2023-05-10T10:45:20;18.20;99.90
2387;DHT22;49473;50.772;8.768;2023-05-10T10:47:47;18.40;99.90
2387;DHT22;49473;50.772;8.768;2023-05-10T10:50:16;18.50;99.90
2387;DHT22;49473;50.772;8.768;2023-05-10T10:52:43;18.80;99.90
2387;DHT22;49473;50.772;8.768;2023-05-10T10:55:12;18.80;99.90
2387;DHT22;49473;50.772;8.768;2023-05-10T10:57:44;18.70;99.90
2387;DHT22;49473;50.772;8.768;2023-05-10T11:00:19;18.60;99.90
2387;DHT22;49473;50.772;8.768;2023-05-10T11:02:47;18.90;99.90
2387;DHT22;49473;50.772;8.768;2023-05-10T11:05:37;18.80;99.90
2387;DHT22;49473;50.772;8.768;2023-05-10T11:08:16;18.70;99.90
2387;DHT22;49473;50.772;8.768;2023-05-10T11:11:01;18.60;99.90
2387;DHT22;49473;50.772;8.768;2023-05-10T11:13:31;18.50;99.90
2387;DHT22;49473;50.772;8.768;2023-05-10T11:15:58;18.30;99.90
2387;DHT22;49473;50.772;8.768;2023-05-10T11:18:26;18.20;99.90
2387;DHT22;49473;50.772;8.768;2023-05-10T11:20:57;18.30;99.90
2387;DHT22;49473;50.772;8.768;2023-05-10T11:23:30;18.40;99.90
2387;DHT22;49473;50.772;8.768;2023-05-10T11:25:57;18.80;99.90
2387;DHT22;49473;50.772;8.768;2023-05-10T11:28:24;19.30;99.90
2387;DHT22;49473;50.772;8.768;2023-05-10T11:30:52;20.20;99.90
2387;DHT22;49473;50.772;8.768;2023-05-10T11:33:19;21.40;99.90
2387;DHT22;49473;50.772;8.768;2023-05-10T11:35:46;22.00;99.90
2387;DHT22;49473;50.772;8.768;2023-05-10T11:38:14;22.60;99.90
2387;DHT22;49473;50.772;8.768;2023-05-10T11:40:41;24.00;99.90
2387;DHT22;49473;50.772;8.768;2023-05-10T11:43:09;25.00;99.90
2387;DHT22;49473;50.772;8.768;2023-05-10T11:45:37;24.80;99.90
2387;DHT22;49473;50.772;8.768;2023-05-10T11:48:04;24.50;99.90
2387;DHT22;49473;50.772;8.768;2023-05-10T11:50:31;23.70;99.90
2387;DHT22;49473;50.772;8.768;2023-05-10T11:52:59;23.40;99.90
2387;DHT22;49473;50.772;8.768;2023-05-10T11:55:27;22.60;99.90
2387;DHT22;49473;50.772;8.768;2023-05-10T11:57:59;22.10;99.90
2387;DHT22;49473;50.772;8.768;2023-05-10T12:00:26;21.50;99.90
2387;DHT22;49473;50.772;8.768;2023-05-10T12:02:53;21.00;99.90
2387;DHT22;49473;50.772;8.768;2023-05-10T12:05:20;20.80;99.90
2387;DHT22;49473;50.772;8.768;2023-05-10T12:07:46;20.40;99.90
2387;DHT22;49473;50.772;8.768;2023-05-10T12:10:13;20.20;99.90
2387;DHT22;49473;50.772;8.768;2023-05-10T12:12:44;20.20;99.90
2387;DHT22;49473;50.772;8.768;2023-05-10T12:15:12;20.10;99.90
2387;DHT22;49473;50.772;8.768;2023-05-10T12:17:39;20.20;99.90
2387;DHT22;49473;50.772;8.768;2023-05-10T12:20:13;20.10;99.90
2387;DHT22;49473;50.772;8.768;2023-05-10T12:22:41;19.90;99.90
2387;DHT22;49473;50.772;8.768;2023-05-10T12:25:09;19.90;99.90
2387;DHT22;49473;50.772;8.768;2023-05-10T12:27:36;19.80;99.90
2387;DHT22;49473;50.772;8.768;2023-05-10T12:30:05;19.70;99.90
2387;DHT22;49473;50.772;8.768;2023-05-10T12:32:39;19.90;99.90
2387;DHT22;49473;50.772;8.768;2023-05-10T12:35:07;20.00;99.90
2387;DHT22;49473;50.772;8.768;2023-05-10T12:37:34;20.00;99.90
2387;DHT22;49473;50.772;8.768;2023-05-10T12:40:06;20.00;99.90
2387;DHT22;49473;50.772;8.768;2023-05-10T12:42:33;19.90;99.90
2387;DHT22;49473;50.772;8.768;2023-05-10T12:45:00;19.60;99.90
2387;DHT22;49473;50.772;8.768;2023-05-10T12:47:29;19.30;99.90
2387;DHT22;49473;50.772;8.768;2023-05-10T12:49:55;19.30;99.90
2387;DHT22;49473;50.772;8.768;2023-05-10T12:52:23;19.40;99.90
2387;DHT22;49473;50.772;8.768;2023-05-10T12:54:51;19.10;99.90
2387;DHT22;49473;50.772;8.768;2023-05-10T12:57:18;19.00;99.90
2387;DHT22;49473;50.772;8.768;2023-05-10T12:59:45;18.90;99.90
2387;DHT22;49473;50.772;8.768;2023-05-10T13:02:12;18.90;99.90
2387;DHT22;49473;50.772;8.768;2023-05-10T13:04:41;18.90;99.90
2387;DHT22;49473;50.772;8.768;2023-05-10T13:07:08;18.70;99.90
2387;DHT22;49473;50.772;8.768;2023-05-10T13:09:35;18.20;99.90
2387;DHT22;49473;50.772;8.768;2023-05-10T13:12:01;17.70;99.90
2387;DHT22;49473;50.772;8.768;2023-05-10T13:14:29;17.70;99.90
2387;DHT22;49473;50.772;8.768;2023-05-10T13:16:56;17.40;99.90
2387;DHT22;49473;50.772;8.768;2023-05-10T13:19:23;17.50;99.90
2387;DHT22;49473;50.772;8.768;2023-05-10T13:21:51;17.70;99.90
2387;DHT22;49473;50.772;8.768;2023-05-10T13:24:18;17.80;99.90
2387;DHT22;49473;50.772;8.768;2023-05-10T13:26:45;17.70;99.90
2387;DHT22;49473;50.772;8.768;2023-05-10T13:29:12;17.60;99.90
2387;DHT22;49473;50.772;8.768;2023-05-10T13:31:39;17.80;99.90
2387;DHT22;49473;50.772;8.768;2023-05-10T13:34:06;18.30;99.90
2387;DHT22;49473;50.772;8.768;2023-05-10T13:36:32;18.50;99.90
2387;DHT22;49473;50.772;8.768;2023-05-10T13:39:00;18.30;99.90
2387;DHT22;49473;50.772;8.768;2023-05-10T13:41:28;18.50;99.90
2387;DHT22;49473;50.772;8.768;2023-05-10T13:43:55;18.70;99.90
2387;DHT22;49473;50.772;8.768;2023-05-10T13:46:22;18.90;99.90
2387;DHT22;49473;50.772;8.768;2023-05-10T13:48:48;18.90;99.90
2387;DHT22;49473;50.772;8.768;2023-05-10T13:51:15;19.20;99.90
2387;DHT22;49473;50.772;8.768;2023-05-10T13:53:42;19.50;99.90
2387;DHT22;49473;50.772;8.768;2023-05-10T13:56:10;19.70;99.90
2387;DHT22;49473;50.772;8.768;2023-05-10T13:58:37;19.60;99.90
2387;DHT22;49473;50.772;8.768;2023-05-10T14:01:04;19.60;99.90
2387;DHT22;49473;50.772;8.768;2023-05-10T14:03:31;19.80;99.90
2387;DHT22;49473;50.772;8.768;2023-05-10T14:05:58;20.00;99.90
2387;DHT22;49473;50.772;8.768;2023-05-10T14:08:24;20.00;99.90
2387;DHT22;49473;50.772;8.768;2023-05-10T14:10:52;19.90;99.90
2387;DHT22;49473;50.772;8.768;2023-05-10T14:13:20;19.80;99.90
2387;DHT22;49473;50.772;8.768;2023-05-10T14:15:47;19.90;99.90
2387;DHT22;49473;50.772;8.768;2023-05-10T14:18:13;19.50;99.90
2387;DHT22;49473;50.772;8.768;2023-05-10T14:20:40;19.40;99.90
2387;DHT22;49473;50.772;8.768;2023-05-10T14:23:07;19.40;99.90
2387;DHT22;49473;50.772;8.768;2023-05-10T14:25:34;19.40;99.90
2387;DHT22;49473;50.772;8.768;2023-05-10T14:28:00;19.70;99.90
2387;DHT22;49473;50.772;8.768;2023-05-10T14:30:28;19.70;99.90
2387;DHT22;49473;50.772;8.768;2023-05-10T14:32:56;19.80;99.90
2387;DHT22;49473;50.772;8.768;2023-05-10T14:35:23;19.60;99.90
2387;DHT22;49473;50.772;8.768;2023-05-10T14:37:50;19.30;99.90
2387;DHT22;49473;50.772;8.768;2023-05-10T14:40:17;19.10;99.90
2387;DHT22;49473;50.772;8.768;2023-05-10T14:42:44;19.20;99.90
2387;DHT22;49473;50.772;8.768;2023-05-10T14:45:11;19.40;99.90
2387;DHT22;49473;50.772;8.768;2023-05-10T14:47:39;19.60;99.90
2387;DHT22;49473;50.772;8.768;2023-05-10T14:50:06;19.80;99.90
2387;DHT22;49473;50.772;8.768;2023-05-10T14:52:33;20.00;99.90
2387;DHT22;49473;50.772;8.768;2023-05-10T14:55:00;19.90;99.90
2387;DHT22;49473;50.772;8.768;2023-05-10T14:57:27;20.00;99.90
2387;DHT22;49473;50.772;8.768;2023-05-10T14:59:54;19.70;99.90
2387;DHT22;49473;50.772;8.768;2023-05-10T15:02:21;20.00;99.90
2387;DHT22;49473;50.772;8.768;2023-05-10T15:04:49;20.10;99.90
2387;DHT22;49473;50.772;8.768;2023-05-10T15:07:16;20.30;99.90
2387;DHT22;49473;50.772;8.768;2023-05-10T15:09:43;19.90;99.90
2387;DHT22;49473;50.772;8.768;2023-05-10T15:12:10;20.10;99.90
2387;DHT22;49473;50.772;8.768;2023-05-10T15:14:37;20.30;99.90
2387;DHT22;49473;50.772;8.768;2023-05-10T15:17:06;20.60;99.90
2387;DHT22;49473;50.772;8.768;2023-05-10T15:19:33;20.20;99.90
2387;DHT22;49473;50.772;8.768;2023-05-10T15:22:01;20.10;99.90
2387;DHT22;49473;50.772;8.768;2023-05-10T15:24:28;20.10;99.90
2387;DHT22;49473;50.772;8.768;2023-05-10T15:26:54;20.00;99.90
2387;DHT22;49473;50.772;8.768;2023-05-10T15:29:21;20.10;99.90
2387;DHT22;49473;50.772;8.768;2023-05-10T15:31:49;20.00;99.90
2387;DHT22;49473;50.772;8.768;2023-05-10T15:34:17;19.90;99.90
2387;DHT22;49473;50.772;8.768;2023-05-10T15:36:44;20.00;99.90
2387;DHT22;49473;50.772;8.768;2023-05-10T15:39:12;20.00;99.90
2387;DHT22;49473;50.772;8.768;2023-05-10T15:41:39;19.80;99.90
2387;DHT22;49473;50.772;8.768;2023-05-10T15:44:06;19.80;99.90
2387;DHT22;49473;50.772;8.768;2023-05-10T15:46:33;19.70;99.90
2387;DHT22;49473;50.772;8.768;2023-05-10T15:49:00;19.60;99.90
2387;DHT22;49473;50.772;8.768;2023-05-10T15:51:27;19.50;99.90
2387;DHT22;49473;50.772;8.768;2023-05-10T15:53:54;19.50;99.90